In Rescue
 
Open Full Screen Window  High Contrast Mode
Wind Gusting 00 knots
03
November 27, 2020 11:05 PM EST
Weather Information
Wind Direction
  310 °
Wind Speed
  03 kt (3 mph)
Wind Gust
  00 kt (0 mph)
Altimeter
30.07 in
Visibility
10 SM
Temperature
04° C
39° F
Dewpoint
04° C
39° F
Humidity
100%
1hr Rain Fall
00.00 in.
24hr Rain Fall
00.00 in.
Sky Condition
Overcast @ 2,800 ft
MVFR

METAR KEDJ 280405Z AUTO 31003KT 10SM OVC028 04/04 A3007 RMK AO1

FAA Disclaimer: The data displayed is for advisory purposes only and is not to be used for flight planning or operations.